»·PEaware :: UAL1399 KSAN-KLAX

UAL1399 :: KSAN-KLAX

FLIGHT INFORMATION

Flight Status: Arrived
Operator:
United Airlines
More flights by this operator :: More flights under this callsign
Pilot: David C. (16084)
Aircraft: BEECH AIRCRAFT BEECH AIRLINER
(B190)
More flights by this aircraft type
Origin: KSAN San Diego Intl-Lindbergh
United States
Destination: KLAX Los Angeles Intl
United States
More flights between these airports :: More routes between these airports
Route: CWARD2 SLI
File this flight plan on PilotEdge
Remarks: TEC SANP4R
Altitude:
(Current/Filed)
8,000ft
Speed:
(Current/Filed)
265kts
Departed: 30-Jul-20 12:24 PM
Arrived: 30-Jul-20 12:53 PM
Distance/Time
Traveled:
94nm/0:29
Distance/Time
To Go:
Arrived

Flight Plot

Page will automatically refresh every two minutes.


Map Options




Map Legend


Flown Route
Filed Route
Departure Airport
Arrival Airport
Navaid (VOR, NDB)
Fix

Horizontal Profiles

Position Reports

Time Latitude Longitude Heading Altitude Ground
Speed
30-Jul-20 11:56 32.733725 -117.203503 267 22ft 0kts
30-Jul-20 11:56 32.733725 -117.203503 267 22ft 0kts
30-Jul-20 11:57 32.733725 -117.203503 267 22ft 0kts
30-Jul-20 11:58 32.733725 -117.203503 267 22ft 0kts
30-Jul-20 11:59 32.733725 -117.203503 267 22ft 0kts
30-Jul-20 12:00 32.733725 -117.203503 268 22ft 0kts
30-Jul-20 12:01 32.733725 -117.203503 267 22ft 0kts
30-Jul-20 12:02 32.733725 -117.203503 267 22ft 0kts
30-Jul-20 12:03 32.733725 -117.203503 267 22ft 0kts
30-Jul-20 12:04 32.733725 -117.203503 267 22ft 0kts
30-Jul-20 12:05 32.733725 -117.203503 267 22ft 0kts
30-Jul-20 12:06 32.733725 -117.203503 267 22ft 0kts
30-Jul-20 12:07 32.733725 -117.203503 267 22ft 0kts
30-Jul-20 12:08 32.733725 -117.203503 267 22ft 0kts
30-Jul-20 12:09 32.733725 -117.203503 267 22ft 0kts
30-Jul-20 12:10 32.733725 -117.203503 267 22ft 0kts
30-Jul-20 12:11 32.733725 -117.203503 267 22ft 0kts
30-Jul-20 12:12 32.733724 -117.203508 267 22ft 0kts
30-Jul-20 12:13 32.733724 -117.203508 267 22ft 0kts
30-Jul-20 12:14 32.733753 -117.203550 336 22ft 0kts
30-Jul-20 12:15 32.734371 -117.202570 17 22ft 0kts
30-Jul-20 12:16 32.735127 -117.202291 18 22ft 6kts
30-Jul-20 12:17 32.734520 -117.197997 105 22ft 22kts
30-Jul-20 12:18 32.732957 -117.191431 105 22ft 19kts
30-Jul-20 12:19 32.731492 -117.185328 106 22ft 18kts
30-Jul-20 12:20 32.730006 -117.179322 107 22ft 19kts
30-Jul-20 12:21 32.729515 -117.176723 77 22ft 0kts
30-Jul-20 12:22 32.729516 -117.176712 77 22ft 0kts
30-Jul-20 12:23 32.730999 -117.179068 286 22ft 64kts
30-Jul-20 12:24 32.744580 -117.219787 305 1425ft 154kts
30-Jul-20 12:25 32.769024 -117.262120 300 3380ft 159kts
30-Jul-20 12:26 32.793336 -117.307220 299 5241ft 166kts
30-Jul-20 12:27 32.821436 -117.352212 303 7241ft 174kts
30-Jul-20 12:28 32.855402 -117.405016 304 7990ft 238kts
30-Jul-20 12:29 32.898565 -117.471933 304 7973ft 264kts
30-Jul-20 12:30 32.943841 -117.542367 304 7964ft 267kts
30-Jul-20 12:31 32.989036 -117.612817 304 7956ft 267kts
30-Jul-20 12:32 33.034191 -117.683325 304 7958ft 268kts
30-Jul-20 12:33 33.084497 -117.750054 315 7959ft 273kts
30-Jul-20 12:34 33.142710 -117.809667 316 7956ft 274kts
30-Jul-20 12:35 33.204384 -117.862337 341 7968ft 280kts
30-Jul-20 12:36 33.280536 -117.883231 345 7987ft 280kts
30-Jul-20 12:37 33.356833 -117.902396 345 7989ft 281kts
30-Jul-20 12:38 33.432225 -117.926530 340 7985ft 281kts
30-Jul-20 12:39 33.506263 -117.953605 341 7987ft 281kts
30-Jul-20 12:40 33.581332 -117.980944 341 7990ft 282kts
30-Jul-20 12:41 33.656795 -118.008477 341 7994ft 282kts
30-Jul-20 12:42 33.731936 -118.035947 341 7954ft 284kts
30-Jul-20 12:43 33.793213 -118.078358 300 5912ft 246kts
30-Jul-20 12:44 33.846793 -118.122154 342 3921ft 243kts
30-Jul-20 12:45 33.910187 -118.144622 342 2025ft 229kts
30-Jul-20 12:46 33.964511 -118.164604 342 1963ft 197kts
30-Jul-20 12:47 33.978187 -118.212095 230 1973ft 195kts
30-Jul-20 12:48 33.946942 -118.257888 255 1964ft 169kts
30-Jul-20 12:49 33.944635 -118.306273 265 1368ft 131kts
30-Jul-20 12:50 33.940492 -118.350495 260 658ft 132kts
30-Jul-20 12:51 33.936431 -118.391455 261 107ft 89kts
30-Jul-20 12:52 33.936533 -118.399524 287 116ft 0kts
30-Jul-20 12:53 33.936536 -118.399535 287 116ft 0kts
30-Jul-20 12:54 33.936509 -118.403273 289 123ft 19kts
30-Jul-20 12:55 33.939204 -118.403639 85 124ft 17kts
30-Jul-20 12:56 33.940044 -118.398159 55 116ft 16kts
30-Jul-20 12:57 33.940357 -118.397646 53 117ft 0kts
30-Jul-20 12:58 33.940357 -118.397646 53 117ft 0kts
30-Jul-20 12:59 33.940357 -118.397646 53 117ft 0kts

Navigation Log

Ident Type
Flight plan parsing failed, navigation log unavailable